sensor_id;sensor_type;location;lat;lon;timestamp;pressure;altitude;pressure_sealevel;temperature;humidity
24336;BME280;33098;52.400;16.880;2023-07-30T00:01:20;99963.94;;;18.12;100.00
24336;BME280;33098;52.400;16.880;2023-07-30T00:03:47;99965.64;;;18.14;100.00
24336;BME280;33098;52.400;16.880;2023-07-30T00:06:16;99967.56;;;18.15;100.00
24336;BME280;33098;52.400;16.880;2023-07-30T00:08:45;99961.80;;;18.17;100.00
24336;BME280;33098;52.400;16.880;2023-07-30T00:11:14;99964.80;;;18.19;100.00
24336;BME280;33098;52.400;16.880;2023-07-30T00:13:41;99966.64;;;18.17;100.00
24336;BME280;33098;52.400;16.880;2023-07-30T00:16:10;99966.07;;;18.14;100.00
24336;BME280;33098;52.400;16.880;2023-07-30T00:18:37;99963.92;;;18.07;100.00
24336;BME280;33098;52.400;16.880;2023-07-30T00:21:07;99965.89;;;18.08;100.00
24336;BME280;33098;52.400;16.880;2023-07-30T00:23:33;99967.32;;;18.05;100.00
24336;BME280;33098;52.400;16.880;2023-07-30T00:26:01;99966.75;;;18.05;100.00
24336;BME280;33098;52.400;16.880;2023-07-30T00:28:28;99966.10;;;17.97;100.00
24336;BME280;33098;52.400;16.880;2023-07-30T00:30:59;99967.23;;;17.98;100.00
24336;BME280;33098;52.400;16.880;2023-07-30T00:33:34;99963.96;;;17.95;100.00
24336;BME280;33098;52.400;16.880;2023-07-30T00:36:03;99970.36;;;17.97;100.00
24336;BME280;33098;52.400;16.880;2023-07-30T00:38:30;99976.23;;;18.02;100.00
24336;BME280;33098;52.400;16.880;2023-07-30T00:40:57;99981.39;;;18.04;100.00
24336;BME280;33098;52.400;16.880;2023-07-30T00:43:24;99979.29;;;18.02;100.00
24336;BME280;33098;52.400;16.880;2023-07-30T00:45:53;99984.50;;;17.93;100.00
24336;BME280;33098;52.400;16.880;2023-07-30T00:48:20;99990.59;;;17.87;100.00
24336;BME280;33098;52.400;16.880;2023-07-30T00:50:48;99987.30;;;17.83;100.00
24336;BME280;33098;52.400;16.880;2023-07-30T00:53:16;99991.83;;;17.82;100.00
24336;BME280;33098;52.400;16.880;2023-07-30T00:55:46;99992.08;;;17.85;100.00
24336;BME280;33098;52.400;16.880;2023-07-30T00:58:14;99984.14;;;17.85;100.00
24336;BME280;33098;52.400;16.880;2023-07-30T01:00:43;99983.62;;;17.86;100.00
24336;BME280;33098;52.400;16.880;2023-07-30T01:03:10;99987.92;;;17.86;100.00
24336;BME280;33098;52.400;16.880;2023-07-30T01:05:40;99989.86;;;17.90;100.00
24336;BME280;33098;52.400;16.880;2023-07-30T01:08:07;99993.92;;;17.92;100.00
24336;BME280;33098;52.400;16.880;2023-07-30T01:10:35;99992.92;;;17.88;100.00
24336;BME280;33098;52.400;16.880;2023-07-30T01:13:05;99992.55;;;17.91;100.00
24336;BME280;33098;52.400;16.880;2023-07-30T01:15:39;100000.80;;;17.88;100.00
24336;BME280;33098;52.400;16.880;2023-07-30T01:18:06;99998.22;;;17.89;100.00
24336;BME280;33098;52.400;16.880;2023-07-30T01:20:36;99996.39;;;17.86;100.00
24336;BME280;33098;52.400;16.880;2023-07-30T01:23:06;99999.61;;;17.86;100.00
24336;BME280;33098;52.400;16.880;2023-07-30T01:25:36;99998.77;;;17.92;100.00
24336;BME280;33098;52.400;16.880;2023-07-30T01:28:06;99999.91;;;17.95;100.00
24336;BME280;33098;52.400;16.880;2023-07-30T01:30:41;100001.30;;;17.90;100.00
24336;BME280;33098;52.400;16.880;2023-07-30T01:33:10;100000.23;;;17.89;100.00
24336;BME280;33098;52.400;16.880;2023-07-30T01:35:40;99999.27;;;17.86;100.00
24336;BME280;33098;52.400;16.880;2023-07-30T01:38:15;99998.35;;;17.85;100.00
24336;BME280;33098;52.400;16.880;2023-07-30T01:40:43;100003.78;;;17.83;100.00
24336;BME280;33098;52.400;16.880;2023-07-30T01:43:10;100002.11;;;17.75;100.00
24336;BME280;33098;52.400;16.880;2023-07-30T01:45:39;99998.71;;;17.78;100.00
24336;BME280;33098;52.400;16.880;2023-07-30T01:48:08;99997.48;;;17.83;100.00
24336;BME280;33098;52.400;16.880;2023-07-30T01:50:35;99995.79;;;17.85;100.00
24336;BME280;33098;52.400;16.880;2023-07-30T01:53:10;99998.25;;;17.89;100.00
24336;BME280;33098;52.400;16.880;2023-07-30T01:55:37;99992.98;;;17.89;100.00
24336;BME280;33098;52.400;16.880;2023-07-30T01:58:05;99989.55;;;17.89;100.00
24336;BME280;33098;52.400;16.880;2023-07-30T02:00:36;99988.91;;;17.90;100.00
24336;BME280;33098;52.400;16.880;2023-07-30T02:03:06;99997.56;;;17.87;100.00
24336;BME280;33098;52.400;16.880;2023-07-30T02:05:33;100001.75;;;17.83;100.00
24336;BME280;33098;52.400;16.880;2023-07-30T02:08:03;100005.71;;;17.75;100.00
24336;BME280;33098;52.400;16.880;2023-07-30T02:10:32;100002.73;;;17.68;100.00
24336;BME280;33098;52.400;16.880;2023-07-30T02:12:59;99999.48;;;17.69;100.00
24336;BME280;33098;52.400;16.880;2023-07-30T02:15:31;99997.05;;;17.68;100.00
24336;BME280;33098;52.400;16.880;2023-07-30T02:17:58;100002.06;;;17.76;100.00
24336;BME280;33098;52.400;16.880;2023-07-30T02:20:25;100003.45;;;17.71;100.00
24336;BME280;33098;52.400;16.880;2023-07-30T02:22:51;100016.28;;;17.74;100.00
24336;BME280;33098;52.400;16.880;2023-07-30T02:25:22;100022.79;;;17.78;100.00
24336;BME280;33098;52.400;16.880;2023-07-30T02:27:52;100019.65;;;17.84;100.00
24336;BME280;33098;52.400;16.880;2023-07-30T02:30:20;100014.73;;;17.87;100.00
24336;BME280;33098;52.400;16.880;2023-07-30T02:32:47;100019.54;;;17.92;100.00
24336;BME280;33098;52.400;16.880;2023-07-30T02:35:15;100022.66;;;17.93;100.00
24336;BME280;33098;52.400;16.880;2023-07-30T02:37:43;100024.88;;;17.96;100.00
24336;BME280;33098;52.400;16.880;2023-07-30T02:40:10;100024.71;;;17.96;100.00
24336;BME280;33098;52.400;16.880;2023-07-30T02:42:37;100023.47;;;17.91;100.00
24336;BME280;33098;52.400;16.880;2023-07-30T02:45:06;100021.33;;;17.89;100.00
24336;BME280;33098;52.400;16.880;2023-07-30T02:47:33;100022.66;;;17.82;100.00
24336;BME280;33098;52.400;16.880;2023-07-30T02:50:02;100019.13;;;17.74;100.00
24336;BME280;33098;52.400;16.880;2023-07-30T02:52:35;100016.73;;;17.71;100.00
24336;BME280;33098;52.400;16.880;2023-07-30T02:55:03;100015.94;;;17.75;100.00
24336;BME280;33098;52.400;16.880;2023-07-30T02:57:31;100019.88;;;17.69;100.00
24336;BME280;33098;52.400;16.880;2023-07-30T03:00:03;100018.35;;;17.65;100.00
24336;BME280;33098;52.400;16.880;2023-07-30T03:02:30;100023.69;;;17.65;100.00
24336;BME280;33098;52.400;16.880;2023-07-30T03:04:57;100023.30;;;17.66;100.00
24336;BME280;33098;52.400;16.880;2023-07-30T03:07:24;100020.50;;;17.61;100.00
24336;BME280;33098;52.400;16.880;2023-07-30T03:09:51;100020.67;;;17.61;100.00
24336;BME280;33098;52.400;16.880;2023-07-30T03:12:19;100022.66;;;17.67;100.00
24336;BME280;33098;52.400;16.880;2023-07-30T03:14:46;100027.33;;;17.73;100.00
24336;BME280;33098;52.400;16.880;2023-07-30T03:17:13;100033.92;;;17.78;100.00
24336;BME280;33098;52.400;16.880;2023-07-30T03:19:39;100032.13;;;17.73;100.00
24336;BME280;33098;52.400;16.880;2023-07-30T03:22:06;100033.11;;;17.68;100.00
24336;BME280;33098;52.400;16.880;2023-07-30T03:24:35;100038.40;;;17.63;100.00
24336;BME280;33098;52.400;16.880;2023-07-30T03:27:03;100037.46;;;17.66;100.00
24336;BME280;33098;52.400;16.880;2023-07-30T03:29:30;100037.83;;;17.68;100.00
24336;BME280;33098;52.400;16.880;2023-07-30T03:31:56;100038.66;;;17.73;100.00
24336;BME280;33098;52.400;16.880;2023-07-30T03:34:23;100042.30;;;17.68;100.00
24336;BME280;33098;52.400;16.880;2023-07-30T03:36:52;100043.77;;;17.64;100.00
24336;BME280;33098;52.400;16.880;2023-07-30T03:39:22;100042.98;;;17.60;100.00
24336;BME280;33098;52.400;16.880;2023-07-30T03:41:48;100043.83;;;17.59;100.00
24336;BME280;33098;52.400;16.880;2023-07-30T03:44:18;100041.98;;;17.56;100.00
24336;BME280;33098;52.400;16.880;2023-07-30T03:46:45;100044.63;;;17.52;100.00
24336;BME280;33098;52.400;16.880;2023-07-30T03:49:12;100042.05;;;17.49;100.00
24336;BME280;33098;52.400;16.880;2023-07-30T03:51:42;100039.27;;;17.47;100.00
24336;BME280;33098;52.400;16.880;2023-07-30T03:54:10;100047.32;;;17.39;100.00
24336;BME280;33098;52.400;16.880;2023-07-30T03:56:38;100050.72;;;17.31;100.00
24336;BME280;33098;52.400;16.880;2023-07-30T03:59:05;100047.70;;;17.30;100.00
24336;BME280;33098;52.400;16.880;2023-07-30T04:01:31;100050.54;;;17.35;100.00
24336;BME280;33098;52.400;16.880;2023-07-30T04:04:01;100054.59;;;17.44;100.00
24336;BME280;33098;52.400;16.880;2023-07-30T04:06:29;100055.18;;;17.47;100.00
24336;BME280;33098;52.400;16.880;2023-07-30T04:08:56;100059.61;;;17.51;100.00
24336;BME280;33098;52.400;16.880;2023-07-30T04:11:22;100067.75;;;17.51;100.00
24336;BME280;33098;52.400;16.880;2023-07-30T04:13:49;100069.09;;;17.45;100.00
24336;BME280;33098;52.400;16.880;2023-07-30T04:16:18;100065.89;;;17.44;100.00
24336;BME280;33098;52.400;16.880;2023-07-30T04:18:48;100066.41;;;17.50;100.00
24336;BME280;33098;52.400;16.880;2023-07-30T04:21:14;100067.27;;;17.47;100.00
24336;BME280;33098;52.400;16.880;2023-07-30T04:23:47;100065.39;;;17.46;100.00
24336;BME280;33098;52.400;16.880;2023-07-30T04:26:14;100068.61;;;17.41;100.00
24336;BME280;33098;52.400;16.880;2023-07-30T04:28:42;100073.09;;;17.38;100.00
24336;BME280;33098;52.400;16.880;2023-07-30T04:31:12;100075.54;;;17.48;100.00
24336;BME280;33098;52.400;16.880;2023-07-30T04:33:44;100079.90;;;17.51;100.00
24336;BME280;33098;52.400;16.880;2023-07-30T04:36:12;100084.23;;;17.46;100.00
24336;BME280;33098;52.400;16.880;2023-07-30T04:38:39;100088.15;;;17.48;100.00
24336;BME280;33098;52.400;16.880;2023-07-30T04:41:11;100089.06;;;17.54;100.00
24336;BME280;33098;52.400;16.880;2023-07-30T04:43:44;100089.94;;;17.59;100.00
24336;BME280;33098;52.400;16.880;2023-07-30T04:46:14;100092.19;;;17.60;100.00
24336;BME280;33098;52.400;16.880;2023-07-30T04:48:42;100094.67;;;17.63;100.00
24336;BME280;33098;52.400;16.880;2023-07-30T04:51:14;100095.10;;;17.74;100.00
24336;BME280;33098;52.400;16.880;2023-07-30T04:53:40;100100.41;;;17.79;100.00
24336;BME280;33098;52.400;16.880;2023-07-30T04:56:07;100104.41;;;17.81;100.00
24336;BME280;33098;52.400;16.880;2023-07-30T04:58:37;100106.21;;;17.90;100.00
24336;BME280;33098;52.400;16.880;2023-07-30T05:01:10;100106.22;;;17.94;100.00
24336;BME280;33098;52.400;16.880;2023-07-30T05:03:36;100103.27;;;17.87;100.00
24336;BME280;33098;52.400;16.880;2023-07-30T05:06:04;100109.23;;;17.80;100.00
24336;BME280;33098;52.400;16.880;2023-07-30T05:08:33;100114.09;;;17.83;100.00
24336;BME280;33098;52.400;16.880;2023-07-30T05:10:59;100111.98;;;17.86;100.00
24336;BME280;33098;52.400;16.880;2023-07-30T05:13:26;100109.55;;;17.87;100.00
24336;BME280;33098;52.400;16.880;2023-07-30T05:15:53;100116.91;;;17.86;100.00
24336;BME280;33098;52.400;16.880;2023-07-30T05:18:19;100116.36;;;17.87;100.00
24336;BME280;33098;52.400;16.880;2023-07-30T05:20:46;100116.14;;;17.94;100.00
24336;BME280;33098;52.400;16.880;2023-07-30T05:23:13;100114.73;;;18.02;100.00
24336;BME280;33098;52.400;16.880;2023-07-30T05:25:40;100112.98;;;18.00;100.00
24336;BME280;33098;52.400;16.880;2023-07-30T05:28:07;100112.01;;;17.99;100.00
24336;BME280;33098;52.400;16.880;2023-07-30T05:30:34;100115.90;;;18.02;100.00
24336;BME280;33098;52.400;16.880;2023-07-30T05:33:01;100116.52;;;18.05;100.00
24336;BME280;33098;52.400;16.880;2023-07-30T05:35:30;100121.33;;;18.18;100.00
24336;BME280;33098;52.400;16.880;2023-07-30T05:38:00;100117.40;;;18.21;100.00
24336;BME280;33098;52.400;16.880;2023-07-30T05:40:26;100120.98;;;18.24;100.00
24336;BME280;33098;52.400;16.880;2023-07-30T05:42:59;100123.50;;;18.30;100.00
24336;BME280;33098;52.400;16.880;2023-07-30T05:45:27;100127.39;;;18.37;100.00
24336;BME280;33098;52.400;16.880;2023-07-30T05:47:54;100131.36;;;18.43;100.00
24336;BME280;33098;52.400;16.880;2023-07-30T05:50:20;100125.34;;;18.40;100.00
24336;BME280;33098;52.400;16.880;2023-07-30T05:52:47;100121.38;;;18.39;100.00
24336;BME280;33098;52.400;16.880;2023-07-30T05:55:22;100118.53;;;18.41;100.00
24336;BME280;33098;52.400;16.880;2023-07-30T05:57:49;100116.01;;;18.53;100.00
24336;BME280;33098;52.400;16.880;2023-07-30T06:00:21;100109.16;;;18.66;100.00
24336;BME280;33098;52.400;16.880;2023-07-30T06:02:48;100115.11;;;18.70;100.00
24336;BME280;33098;52.400;16.880;2023-07-30T06:05:20;100110.12;;;18.61;100.00
24336;BME280;33098;52.400;16.880;2023-07-30T06:07:50;100111.75;;;18.55;100.00
24336;BME280;33098;52.400;16.880;2023-07-30T06:10:16;100114.08;;;18.46;100.00
24336;BME280;33098;52.400;16.880;2023-07-30T06:12:44;100109.66;;;18.47;100.00
24336;BME280;33098;52.400;16.880;2023-07-30T06:15:14;100109.85;;;18.49;100.00
24336;BME280;33098;52.400;16.880;2023-07-30T06:17:40;100111.53;;;18.55;100.00
24336;BME280;33098;52.400;16.880;2023-07-30T06:20:14;100111.82;;;18.67;100.00
24336;BME280;33098;52.400;16.880;2023-07-30T06:22:40;100110.77;;;18.74;100.00
24336;BME280;33098;52.400;16.880;2023-07-30T06:25:09;100114.14;;;18.71;100.00
24336;BME280;33098;52.400;16.880;2023-07-30T06:27:35;100112.65;;;18.75;100.00
24336;BME280;33098;52.400;16.880;2023-07-30T06:30:05;100112.48;;;18.83;100.00
24336;BME280;33098;52.400;16.880;2023-07-30T06:32:36;100111.70;;;18.83;100.00
24336;BME280;33098;52.400;16.880;2023-07-30T06:35:03;100116.42;;;18.83;100.00
24336;BME280;33098;52.400;16.880;2023-07-30T06:37:30;100113.96;;;18.87;100.00
24336;BME280;33098;52.400;16.880;2023-07-30T06:39:56;100118.05;;;18.92;100.00
24336;BME280;33098;52.400;16.880;2023-07-30T06:42:23;100120.77;;;18.89;100.00
24336;BME280;33098;52.400;16.880;2023-07-30T06:44:50;100121.29;;;18.86;100.00
24336;BME280;33098;52.400;16.880;2023-07-30T06:47:17;100122.83;;;18.93;100.00
24336;BME280;33098;52.400;16.880;2023-07-30T06:49:45;100124.89;;;19.01;100.00
24336;BME280;33098;52.400;16.880;2023-07-30T06:52:12;100129.77;;;19.11;100.00
24336;BME280;33098;52.400;16.880;2023-07-30T06:54:44;100127.80;;;19.05;100.00
24336;BME280;33098;52.400;16.880;2023-07-30T06:57:11;100120.42;;;18.98;100.00
24336;BME280;33098;52.400;16.880;2023-07-30T06:59:38;100118.85;;;19.06;100.00
24336;BME280;33098;52.400;16.880;2023-07-30T07:02:06;100117.56;;;19.17;100.00
24336;BME280;33098;52.400;16.880;2023-07-30T07:04:33;100122.11;;;19.27;100.00
24336;BME280;33098;52.400;16.880;2023-07-30T07:07:00;100120.52;;;19.36;100.00
24336;BME280;33098;52.400;16.880;2023-07-30T07:09:29;100121.95;;;19.43;100.00
24336;BME280;33098;52.400;16.880;2023-07-30T07:11:56;100124.65;;;19.53;100.00
24336;BME280;33098;52.400;16.880;2023-07-30T07:14:23;100124.36;;;19.58;100.00
24336;BME280;33098;52.400;16.880;2023-07-30T07:16:50;100129.04;;;19.58;100.00
24336;BME280;33098;52.400;16.880;2023-07-30T07:19:16;100135.58;;;19.44;100.00
24336;BME280;33098;52.400;16.880;2023-07-30T07:21:43;100134.08;;;19.47;100.00
24336;BME280;33098;52.400;16.880;2023-07-30T07:24:10;100134.48;;;19.57;100.00
24336;BME280;33098;52.400;16.880;2023-07-30T07:26:36;100127.08;;;19.60;100.00
24336;BME280;33098;52.400;16.880;2023-07-30T07:29:03;100134.89;;;19.70;100.00
24336;BME280;33098;52.400;16.880;2023-07-30T07:31:33;100131.63;;;19.78;100.00
24336;BME280;33098;52.400;16.880;2023-07-30T07:34:00;100134.57;;;19.85;100.00
24336;BME280;33098;52.400;16.880;2023-07-30T07:36:28;100137.69;;;19.90;100.00
24336;BME280;33098;52.400;16.880;2023-07-30T07:38:54;100139.21;;;19.96;100.00
24336;BME280;33098;52.400;16.880;2023-07-30T07:41:21;100143.73;;;20.01;100.00
24336;BME280;33098;52.400;16.880;2023-07-30T07:43:47;100144.69;;;20.01;100.00
24336;BME280;33098;52.400;16.880;2023-07-30T07:46:14;100144.47;;;20.04;100.00
24336;BME280;33098;52.400;16.880;2023-07-30T07:48:41;100144.10;;;20.04;100.00
24336;BME280;33098;52.400;16.880;2023-07-30T07:51:11;100148.20;;;20.12;100.00
24336;BME280;33098;52.400;16.880;2023-07-30T07:53:40;100152.14;;;20.15;100.00
24336;BME280;33098;52.400;16.880;2023-07-30T07:56:13;100150.79;;;20.16;100.00
24336;BME280;33098;52.400;16.880;2023-07-30T07:58:40;100153.34;;;20.13;100.00
24336;BME280;33098;52.400;16.880;2023-07-30T08:01:09;100148.91;;;20.15;100.00
24336;BME280;33098;52.400;16.880;2023-07-30T08:03:36;100150.90;;;20.18;100.00
24336;BME280;33098;52.400;16.880;2023-07-30T08:06:03;100145.21;;;20.23;100.00
24336;BME280;33098;52.400;16.880;2023-07-30T08:08:30;100147.77;;;20.30;100.00
24336;BME280;33098;52.400;16.880;2023-07-30T08:10:58;100147.20;;;20.27;100.00
24336;BME280;33098;52.400;16.880;2023-07-30T08:13:25;100150.97;;;20.24;100.00
24336;BME280;33098;52.400;16.880;2023-07-30T08:15:53;100147.11;;;20.31;100.00
24336;BME280;33098;52.400;16.880;2023-07-30T08:18:19;100153.38;;;20.37;100.00
24336;BME280;33098;52.400;16.880;2023-07-30T08:20:46;100157.79;;;20.40;100.00
24336;BME280;33098;52.400;16.880;2023-07-30T08:23:13;100157.48;;;20.43;100.00
24336;BME280;33098;52.400;16.880;2023-07-30T08:25:39;100162.32;;;20.49;100.00
24336;BME280;33098;52.400;16.880;2023-07-30T08:28:09;100160.77;;;20.56;100.00
24336;BME280;33098;52.400;16.880;2023-07-30T08:30:38;100157.33;;;20.66;100.00
24336;BME280;33098;52.400;16.880;2023-07-30T08:33:07;100162.10;;;20.83;100.00
24336;BME280;33098;52.400;16.880;2023-07-30T08:35:35;100159.61;;;20.93;100.00
24336;BME280;33098;52.400;16.880;2023-07-30T08:38:01;100162.27;;;21.04;100.00
24336;BME280;33098;52.400;16.880;2023-07-30T08:40:28;100157.35;;;21.13;100.00
24336;BME280;33098;52.400;16.880;2023-07-30T08:42:57;100158.67;;;21.24;100.00
24336;BME280;33098;52.400;16.880;2023-07-30T08:45:24;100160.92;;;21.32;100.00
24336;BME280;33098;52.400;16.880;2023-07-30T08:47:51;100164.46;;;21.39;100.00
24336;BME280;33098;52.400;16.880;2023-07-30T08:50:18;100162.23;;;21.47;100.00
24336;BME280;33098;52.400;16.880;2023-07-30T08:52:45;100161.88;;;21.55;100.00
24336;BME280;33098;52.400;16.880;2023-07-30T08:55:13;100159.67;;;21.63;100.00
24336;BME280;33098;52.400;16.880;2023-07-30T08:57:43;100162.92;;;21.71;100.00
24336;BME280;33098;52.400;16.880;2023-07-30T09:00:11;100158.50;;;21.78;100.00
24336;BME280;33098;52.400;16.880;2023-07-30T09:02:59;100159.44;;;21.83;100.00
24336;BME280;33098;52.400;16.880;2023-07-30T09:05:25;100163.46;;;21.90;100.00
24336;BME280;33098;52.400;16.880;2023-07-30T09:07:54;100159.69;;;21.93;100.00
24336;BME280;33098;52.400;16.880;2023-07-30T09:10:22;100158.13;;;21.98;100.00
24336;BME280;33098;52.400;16.880;2023-07-30T09:12:55;100154.56;;;22.08;100.00
24336;BME280;33098;52.400;16.880;2023-07-30T09:15:31;100157.65;;;22.18;100.00
24336;BME280;33098;52.400;16.880;2023-07-30T09:18:01;100149.45;;;22.27;100.00
24336;BME280;33098;52.400;16.880;2023-07-30T09:20:35;100151.52;;;22.33;100.00
24336;BME280;33098;52.400;16.880;2023-07-30T09:23:05;100153.84;;;22.41;100.00
24336;BME280;33098;52.400;16.880;2023-07-30T09:25:33;100152.77;;;22.51;100.00
24336;BME280;33098;52.400;16.880;2023-07-30T09:28:00;100148.52;;;22.57;100.00
24336;BME280;33098;52.400;16.880;2023-07-30T09:30:27;100148.16;;;22.63;100.00
24336;BME280;33098;52.400;16.880;2023-07-30T09:32:55;100146.28;;;22.70;100.00
24336;BME280;33098;52.400;16.880;2023-07-30T09:35:22;100146.52;;;22.76;100.00
24336;BME280;33098;52.400;16.880;2023-07-30T09:38:01;100141.65;;;22.82;100.00
24336;BME280;33098;52.400;16.880;2023-07-30T09:40:36;100141.46;;;22.88;100.00
24336;BME280;33098;52.400;16.880;2023-07-30T09:43:04;100151.41;;;22.85;100.00
24336;BME280;33098;52.400;16.880;2023-07-30T09:45:35;100152.16;;;22.83;100.00
24336;BME280;33098;52.400;16.880;2023-07-30T09:48:02;100153.34;;;22.89;100.00
24336;BME280;33098;52.400;16.880;2023-07-30T09:50:31;100149.90;;;22.99;100.00
24336;BME280;33098;52.400;16.880;2023-07-30T09:53:00;100150.20;;;23.11;100.00
24336;BME280;33098;52.400;16.880;2023-07-30T09:55:27;100148.24;;;23.18;100.00
24336;BME280;33098;52.400;16.880;2023-07-30T09:57:54;100147.55;;;23.30;100.00
24336;BME280;33098;52.400;16.880;2023-07-30T10:00:21;100149.08;;;23.43;100.00
24336;BME280;33098;52.400;16.880;2023-07-30T10:02:49;100152.40;;;23.50;100.00
24336;BME280;33098;52.400;16.880;2023-07-30T10:05:20;100151.83;;;23.57;100.00
24336;BME280;33098;52.400;16.880;2023-07-30T10:07:55;100152.63;;;23.67;100.00
24336;BME280;33098;52.400;16.880;2023-07-30T10:10:24;100152.96;;;23.80;100.00
24336;BME280;33098;52.400;16.880;2023-07-30T10:12:51;100151.38;;;23.93;100.00
24336;BME280;33098;52.400;16.880;2023-07-30T10:15:20;100148.02;;;24.04;100.00
24336;BME280;33098;52.400;16.880;2023-07-30T10:17:52;100143.88;;;24.07;100.00
24336;BME280;33098;52.400;16.880;2023-07-30T10:20:20;100146.30;;;24.12;100.00
24336;BME280;33098;52.400;16.880;2023-07-30T10:22:51;100147.61;;;24.20;100.00
24336;BME280;33098;52.400;16.880;2023-07-30T10:25:17;100151.30;;;24.23;100.00
24336;BME280;33098;52.400;16.880;2023-07-30T10:27:49;100150.42;;;24.19;98.92
24336;BME280;33098;52.400;16.880;2023-07-30T10:30:17;100146.73;;;24.17;96.13
24336;BME280;33098;52.400;16.880;2023-07-30T10:37:59;100143.99;;;24.21;96.22
24336;BME280;33098;52.400;16.880;2023-07-30T10:40:26;100145.48;;;24.17;94.98
24336;BME280;33098;52.400;16.880;2023-07-30T10:42:52;100147.29;;;24.23;91.95
24336;BME280;33098;52.400;16.880;2023-07-30T10:45:19;100140.15;;;24.28;92.28
24336;BME280;33098;52.400;16.880;2023-07-30T10:47:45;100132.23;;;24.43;92.78
24336;BME280;33098;52.400;16.880;2023-07-30T10:50:15;100135.46;;;24.53;92.84
24336;BME280;33098;52.400;16.880;2023-07-30T10:52:43;100134.20;;;24.69;93.64
24336;BME280;33098;52.400;16.880;2023-07-30T10:55:10;100133.70;;;24.88;90.44
24336;BME280;33098;52.400;16.880;2023-07-30T10:57:37;100133.34;;;25.06;89.41
24336;BME280;33098;52.400;16.880;2023-07-30T11:00:06;100125.05;;;25.17;89.77
24336;BME280;33098;52.400;16.880;2023-07-30T11:02:33;100130.23;;;25.30;87.41
24336;BME280;33098;52.400;16.880;2023-07-30T11:05:10;100124.59;;;25.47;87.11
24336;BME280;33098;52.400;16.880;2023-07-30T11:07:37;100123.46;;;25.64;87.12
24336;BME280;33098;52.400;16.880;2023-07-30T11:10:04;100129.37;;;25.81;87.43
24336;BME280;33098;52.400;16.880;2023-07-30T11:12:31;100121.54;;;25.90;87.34
24336;BME280;33098;52.400;16.880;2023-07-30T11:15:04;100119.06;;;26.03;86.21
24336;BME280;33098;52.400;16.880;2023-07-30T11:17:31;100121.15;;;26.15;83.62
24336;BME280;33098;52.400;16.880;2023-07-30T11:19:58;100112.98;;;26.18;78.98
24336;BME280;33098;52.400;16.880;2023-07-30T11:22:31;100114.13;;;26.33;79.86
24336;BME280;33098;52.400;16.880;2023-07-30T11:24:58;100110.74;;;26.48;78.43
24336;BME280;33098;52.400;16.880;2023-07-30T11:27:25;100107.86;;;26.46;76.52
24336;BME280;33098;52.400;16.880;2023-07-30T11:29:58;100105.59;;;26.44;79.24
24336;BME280;33098;52.400;16.880;2023-07-30T11:32:27;100114.55;;;26.41;69.42
24336;BME280;33098;52.400;16.880;2023-07-30T11:34:56;100105.49;;;26.21;71.89
24336;BME280;33098;52.400;16.880;2023-07-30T11:37:23;100105.13;;;26.16;73.21
24336;BME280;33098;52.400;16.880;2023-07-30T11:39:51;100104.27;;;26.27;70.44
24336;BME280;33098;52.400;16.880;2023-07-30T11:42:18;100102.02;;;26.39;73.39
24336;BME280;33098;52.400;16.880;2023-07-30T11:44:45;100097.83;;;26.51;71.49
24336;BME280;33098;52.400;16.880;2023-07-30T11:47:13;100098.20;;;26.67;69.44
24336;BME280;33098;52.400;16.880;2023-07-30T11:49:56;100096.68;;;26.84;68.97
24336;BME280;33098;52.400;16.880;2023-07-30T11:52:23;100095.07;;;27.17;66.86
24336;BME280;33098;52.400;16.880;2023-07-30T11:55:00;100094.54;;;27.30;66.84
24336;BME280;33098;52.400;16.880;2023-07-30T11:57:34;100099.99;;;27.58;69.25
24336;BME280;33098;52.400;16.880;2023-07-30T12:00:01;100087.40;;;27.90;71.71
24336;BME280;33098;52.400;16.880;2023-07-30T12:02:38;100085.48;;;28.10;70.24
24336;BME280;33098;52.400;16.880;2023-07-30T12:05:06;100084.70;;;27.95;66.51
24336;BME280;33098;52.400;16.880;2023-07-30T12:07:33;100093.01;;;27.63;64.40
24336;BME280;33098;52.400;16.880;2023-07-30T12:10:10;100082.18;;;27.53;66.85
24336;BME280;33098;52.400;16.880;2023-07-30T12:12:43;100084.23;;;27.68;70.13
24336;BME280;33098;52.400;16.880;2023-07-30T12:15:10;100077.37;;;27.83;70.21
24336;BME280;33098;52.400;16.880;2023-07-30T12:17:38;100072.11;;;27.89;70.17
24336;BME280;33098;52.400;16.880;2023-07-30T12:20:05;100071.42;;;27.84;66.65
24336;BME280;33098;52.400;16.880;2023-07-30T12:22:35;100060.74;;;27.75;63.51
24336;BME280;33098;52.400;16.880;2023-07-30T12:25:02;100054.27;;;27.91;65.39
24336;BME280;33098;52.400;16.880;2023-07-30T12:27:30;100054.42;;;28.17;65.05
24336;BME280;33098;52.400;16.880;2023-07-30T12:29:59;100048.72;;;28.40;66.14
24336;BME280;33098;52.400;16.880;2023-07-30T12:32:26;100046.88;;;28.73;66.11
24336;BME280;33098;52.400;16.880;2023-07-30T12:34:55;100042.13;;;29.04;63.91
24336;BME280;33098;52.400;16.880;2023-07-30T12:37:22;100036.15;;;29.28;59.40
24336;BME280;33098;52.400;16.880;2023-07-30T12:39:49;100036.95;;;29.35;61.79
24336;BME280;33098;52.400;16.880;2023-07-30T12:42:17;100041.47;;;29.61;60.26
24336;BME280;33098;52.400;16.880;2023-07-30T12:44:44;100033.02;;;29.82;59.52